This is the latest recevied weather packets stored in our database for station/object KA3BQE-13. If no packets are shown the sender has not sent any weather packets the latest 10 day(s).
| Time | Temp. | Humidity | Pressure | Rain* | Wind** | Luminosity | Snow |
|---|---|---|---|---|---|---|---|
| 1777729305 | 10.56° C | 53% | 1021.6 hPa | 0 mm | - | 349 W/m² | - |
| 1777729002 | 11.11° C | 50% | 1021.5 hPa | 0 mm | - | 332 W/m² | - |
| 1777728699 | 11.11° C | 51% | 1021.6 hPa | 0 mm | - | 317 W/m² | - |
| 1777728395 | 10.56° C | 52% | 1021.4 hPa | 0 mm | - | 299 W/m² | - |
| 1777728093 | 10.56° C | 51% | 1021.4 hPa | 0 mm | - | 284 W/m² | - |
| 1777727790 | 10.56° C | 54% | 1021.3 hPa | 0 mm | - | 271 W/m² | - |
| 1777727487 | 10° C | 55% | 1021.3 hPa | 0 mm | - | 256 W/m² | - |
| 1777727184 | 10° C | 56% | 1021.3 hPa | 0 mm | - | 253 W/m² | - |
| 1777726882 | 9.44° C | 58% | 1021.4 hPa | 0 mm | - | 231 W/m² | - |
| 1777726578 | 9.44° C | 58% | 1021.1 hPa | 0 mm | - | 198 W/m² | - |
| 1777726275 | 9.44° C | 59% | 1021.1 hPa | 0 mm | - | 182 W/m² | - |
| 1777725972 | 8.89° C | 63% | 1021.3 hPa | 0 mm | - | 172 W/m² | - |
| 1777725669 | 8.33° C | 68% | 1021.3 hPa | 0 mm | - | 180 W/m² | - |
| 1777725367 | 7.78° C | 71% | 1021.3 hPa | 0 mm | - | 182 W/m² | - |
| 1777725064 | 7.78° C | 73% | 1021.2 hPa | 0 mm | - | 180 W/m² | - |
| 1777724760 | 6.67° C | 75% | 1021.1 hPa | 0 mm | - | 155 W/m² | - |
| 1777724458 | 6.11° C | 80% | 1020.9 hPa | 0 mm | - | 122 W/m² | - |
| 1777724155 | 5.56° C | 81% | 1020.9 hPa | 0 mm | - | 82 W/m² | - |
| 1777723852 | 5° C | 83% | 1020.9 hPa | 0 mm | - | 67 W/m² | - |
| 1777723549 | 5° C | 83% | 1020.7 hPa | 0 mm | - | 62 W/m² | - |
| 1777723246 | 4.44° C | 86% | 1020.8 hPa | 0 mm | - | 54 W/m² | - |
| 1777722944 | 4.44° C | 88% | 1020.4 hPa | 0 mm | - | 40 W/m² | - |
| 1777722639 | 4.44° C | 89% | 1020.5 hPa | 0 mm | - | 33 W/m² | - |
| 1777722336 | 3.89° C | 91% | 1020.5 hPa | 0 mm | - | 34 W/m² | - |
| 1777722033 | 3.89° C | 92% | 1020.4 hPa | 0 mm | - | 30 W/m² | - |
* Rain latest hour (hover to see other rain measurements)
** Current wind speed in m/s (hover to see current wind gust speed)